sensor_id;sensor_type;location;lat;lon;timestamp;P1;durP1;ratioP1;P2;durP2;ratioP2
4810;SDS011;2419;51.276;6.472;2024-03-23T00:55:42;2.50;;;1.80;;
4810;SDS011;2419;51.276;6.472;2024-03-23T00:58:08;5.73;;;2.47;;
4810;SDS011;2419;51.276;6.472;2024-03-23T01:00:35;10.53;;;2.40;;
4810;SDS011;2419;51.276;6.472;2024-03-23T01:03:02;19.70;;;3.13;;
4810;SDS011;2419;51.276;6.472;2024-03-23T01:05:29;5.70;;;2.37;;
4810;SDS011;2419;51.276;6.472;2024-03-23T01:07:55;9.00;;;2.40;;
4810;SDS011;2419;51.276;6.472;2024-03-23T01:10:22;6.13;;;2.20;;
4810;SDS011;2419;51.276;6.472;2024-03-23T01:12:50;6.70;;;2.37;;
4810;SDS011;2419;51.276;6.472;2024-03-23T01:15:17;4.57;;;1.83;;
4810;SDS011;2419;51.276;6.472;2024-03-23T01:17:43;9.07;;;2.40;;
4810;SDS011;2419;51.276;6.472;2024-03-23T01:20:10;10.27;;;2.20;;
4810;SDS011;2419;51.276;6.472;2024-03-23T01:22:37;5.70;;;1.93;;
4810;SDS011;2419;51.276;6.472;2024-03-23T01:25:04;11.17;;;2.30;;
4810;SDS011;2419;51.276;6.472;2024-03-23T01:27:30;12.70;;;2.10;;
4810;SDS011;2419;51.276;6.472;2024-03-23T01:29:59;8.47;;;2.13;;
4810;SDS011;2419;51.276;6.472;2024-03-23T01:32:25;9.50;;;2.07;;
4810;SDS011;2419;51.276;6.472;2024-03-23T01:34:52;12.77;;;2.33;;
4810;SDS011;2419;51.276;6.472;2024-03-23T01:37:18;3.50;;;1.73;;
4810;SDS011;2419;51.276;6.472;2024-03-23T01:39:45;4.00;;;1.77;;
4810;SDS011;2419;51.276;6.472;2024-03-23T01:42:12;4.90;;;1.60;;
4810;SDS011;2419;51.276;6.472;2024-03-23T01:44:39;6.23;;;1.77;;
4810;SDS011;2419;51.276;6.472;2024-03-23T01:47:07;5.27;;;1.83;;
4810;SDS011;2419;51.276;6.472;2024-03-23T01:49:34;2.87;;;1.47;;
4810;SDS011;2419;51.276;6.472;2024-03-23T01:52:01;11.47;;;2.50;;
4810;SDS011;2419;51.276;6.472;2024-03-23T01:54:29;6.30;;;2.10;;
4810;SDS011;2419;51.276;6.472;2024-03-23T01:56:56;3.63;;;2.10;;
4810;SDS011;2419;51.276;6.472;2024-03-23T01:59:24;5.70;;;2.83;;
4810;SDS011;2419;51.276;6.472;2024-03-23T02:01:50;6.93;;;1.97;;
4810;SDS011;2419;51.276;6.472;2024-03-23T02:04:21;2.30;;;1.33;;
4810;SDS011;2419;51.276;6.472;2024-03-23T02:06:47;5.50;;;1.63;;
4810;SDS011;2419;51.276;6.472;2024-03-23T02:09:14;8.83;;;2.60;;
4810;SDS011;2419;51.276;6.472;2024-03-23T02:11:40;7.90;;;2.07;;
4810;SDS011;2419;51.276;6.472;2024-03-23T02:14:08;4.53;;;1.97;;
4810;SDS011;2419;51.276;6.472;2024-03-23T02:16:34;3.00;;;1.87;;
4810;SDS011;2419;51.276;6.472;2024-03-23T02:19:01;2.80;;;1.47;;
4810;SDS011;2419;51.276;6.472;2024-03-23T02:21:28;7.97;;;1.83;;
4810;SDS011;2419;51.276;6.472;2024-03-23T02:23:59;9.70;;;1.90;;
4810;SDS011;2419;51.276;6.472;2024-03-23T02:26:26;3.37;;;1.73;;
4810;SDS011;2419;51.276;6.472;2024-03-23T02:28:53;3.77;;;1.90;;
4810;SDS011;2419;51.276;6.472;2024-03-23T02:31:19;6.77;;;1.97;;
4810;SDS011;2419;51.276;6.472;2024-03-23T02:33:46;5.40;;;1.90;;
4810;SDS011;2419;51.276;6.472;2024-03-23T02:36:12;3.30;;;1.60;;
4810;SDS011;2419;51.276;6.472;2024-03-23T02:38:39;5.20;;;2.07;;
4810;SDS011;2419;51.276;6.472;2024-03-23T02:41:06;7.93;;;2.00;;
4810;SDS011;2419;51.276;6.472;2024-03-23T02:43:36;5.70;;;2.17;;
4810;SDS011;2419;51.276;6.472;2024-03-23T02:46:02;5.30;;;1.70;;
4810;SDS011;2419;51.276;6.472;2024-03-23T02:48:29;5.13;;;1.97;;
4810;SDS011;2419;51.276;6.472;2024-03-23T02:50:55;13.70;;;2.40;;
4810;SDS011;2419;51.276;6.472;2024-03-23T02:53:22;5.17;;;2.00;;
4810;SDS011;2419;51.276;6.472;2024-03-23T02:55:49;3.83;;;1.60;;
4810;SDS011;2419;51.276;6.472;2024-03-23T02:58:17;10.93;;;2.33;;
4810;SDS011;2419;51.276;6.472;2024-03-23T03:00:43;13.20;;;2.87;;
4810;SDS011;2419;51.276;6.472;2024-03-23T03:03:10;7.57;;;1.90;;
4810;SDS011;2419;51.276;6.472;2024-03-23T03:05:36;4.90;;;2.30;;
4810;SDS011;2419;51.276;6.472;2024-03-23T03:08:04;7.17;;;2.20;;
4810;SDS011;2419;51.276;6.472;2024-03-23T03:10:30;7.63;;;2.27;;
4810;SDS011;2419;51.276;6.472;2024-03-23T03:13:00;4.10;;;1.80;;
4810;SDS011;2419;51.276;6.472;2024-03-23T03:15:27;12.03;;;2.50;;
4810;SDS011;2419;51.276;6.472;2024-03-23T03:17:54;8.23;;;2.07;;
4810;SDS011;2419;51.276;6.472;2024-03-23T03:20:21;5.40;;;2.47;;
4810;SDS011;2419;51.276;6.472;2024-03-23T03:22:49;6.37;;;1.97;;
4810;SDS011;2419;51.276;6.472;2024-03-23T03:25:15;4.60;;;2.07;;
4810;SDS011;2419;51.276;6.472;2024-03-23T03:27:42;8.43;;;2.27;;
4810;SDS011;2419;51.276;6.472;2024-03-23T03:30:09;5.53;;;2.10;;
4810;SDS011;2419;51.276;6.472;2024-03-23T03:32:38;9.60;;;2.30;;
4810;SDS011;2419;51.276;6.472;2024-03-23T03:35:04;10.87;;;2.80;;
4810;SDS011;2419;51.276;6.472;2024-03-23T03:37:31;7.50;;;2.20;;
4810;SDS011;2419;51.276;6.472;2024-03-23T03:39:57;7.70;;;2.30;;
4810;SDS011;2419;51.276;6.472;2024-03-23T03:42:24;9.97;;;2.97;;
4810;SDS011;2419;51.276;6.472;2024-03-23T03:44:51;4.77;;;2.40;;
4810;SDS011;2419;51.276;6.472;2024-03-23T03:47:19;13.73;;;3.00;;
4810;SDS011;2419;51.276;6.472;2024-03-23T03:49:47;7.83;;;2.33;;
4810;SDS011;2419;51.276;6.472;2024-03-23T03:52:14;11.47;;;3.13;;
4810;SDS011;2419;51.276;6.472;2024-03-23T03:54:40;6.93;;;2.20;;
4810;SDS011;2419;51.276;6.472;2024-03-23T03:57:07;8.10;;;2.20;;
4810;SDS011;2419;51.276;6.472;2024-03-23T03:59:33;7.13;;;2.23;;
4810;SDS011;2419;51.276;6.472;2024-03-23T04:02:00;4.80;;;2.47;;
4810;SDS011;2419;51.276;6.472;2024-03-23T04:04:27;14.53;;;3.23;;
4810;SDS011;2419;51.276;6.472;2024-03-23T04:06:59;16.27;;;3.03;;
4810;SDS011;2419;51.276;6.472;2024-03-23T04:09:26;14.80;;;3.27;;
4810;SDS011;2419;51.276;6.472;2024-03-23T04:11:52;6.90;;;2.77;;
4810;SDS011;2419;51.276;6.472;2024-03-23T04:14:20;10.77;;;3.07;;
4810;SDS011;2419;51.276;6.472;2024-03-23T04:16:46;9.20;;;3.40;;
4810;SDS011;2419;51.276;6.472;2024-03-23T04:19:13;6.70;;;2.93;;
4810;SDS011;2419;51.276;6.472;2024-03-23T04:21:40;10.03;;;3.60;;
4810;SDS011;2419;51.276;6.472;2024-03-23T04:24:08;9.60;;;4.00;;
4810;SDS011;2419;51.276;6.472;2024-03-23T04:26:40;20.80;;;4.00;;
4810;SDS011;2419;51.276;6.472;2024-03-23T04:29:07;13.83;;;4.27;;
4810;SDS011;2419;51.276;6.472;2024-03-23T04:31:34;17.83;;;4.00;;
4810;SDS011;2419;51.276;6.472;2024-03-23T04:34:01;9.53;;;4.40;;
4810;SDS011;2419;51.276;6.472;2024-03-23T04:36:27;17.37;;;5.17;;
4810;SDS011;2419;51.276;6.472;2024-03-23T04:38:55;11.63;;;4.47;;
4810;SDS011;2419;51.276;6.472;2024-03-23T04:41:23;13.03;;;4.13;;
4810;SDS011;2419;51.276;6.472;2024-03-23T04:43:51;11.23;;;3.87;;
4810;SDS011;2419;51.276;6.472;2024-03-23T04:46:18;7.37;;;3.20;;
4810;SDS011;2419;51.276;6.472;2024-03-23T04:48:46;13.77;;;3.57;;
4810;SDS011;2419;51.276;6.472;2024-03-23T04:51:20;12.00;;;3.90;;
4810;SDS011;2419;51.276;6.472;2024-03-23T04:53:47;15.13;;;4.20;;
4810;SDS011;2419;51.276;6.472;2024-03-23T04:56:15;10.13;;;4.27;;
4810;SDS011;2419;51.276;6.472;2024-03-23T04:58:43;8.80;;;4.30;;
4810;SDS011;2419;51.276;6.472;2024-03-23T05:01:10;11.83;;;5.13;;
4810;SDS011;2419;51.276;6.472;2024-03-23T05:03:38;12.00;;;4.83;;
4810;SDS011;2419;51.276;6.472;2024-03-23T05:06:04;14.07;;;5.20;;
4810;SDS011;2419;51.276;6.472;2024-03-23T05:08:32;13.30;;;3.97;;
4810;SDS011;2419;51.276;6.472;2024-03-23T05:10:58;8.60;;;4.10;;
4810;SDS011;2419;51.276;6.472;2024-03-23T05:13:25;16.70;;;6.00;;
4810;SDS011;2419;51.276;6.472;2024-03-23T05:15:53;18.43;;;4.90;;
4810;SDS011;2419;51.276;6.472;2024-03-23T05:18:20;12.87;;;4.70;;
4810;SDS011;2419;51.276;6.472;2024-03-23T05:20:47;8.23;;;4.40;;
4810;SDS011;2419;51.276;6.472;2024-03-23T05:23:14;5.80;;;3.90;;
4810;SDS011;2419;51.276;6.472;2024-03-23T05:25:40;23.10;;;5.27;;
4810;SDS011;2419;51.276;6.472;2024-03-23T05:28:08;8.10;;;4.37;;
4810;SDS011;2419;51.276;6.472;2024-03-23T05:30:34;14.07;;;4.87;;
4810;SDS011;2419;51.276;6.472;2024-03-23T05:33:03;16.50;;;5.40;;
4810;SDS011;2419;51.276;6.472;2024-03-23T05:35:29;11.73;;;4.43;;
4810;SDS011;2419;51.276;6.472;2024-03-23T05:37:57;9.73;;;4.77;;
4810;SDS011;2419;51.276;6.472;2024-03-23T05:40:23;25.10;;;5.43;;
4810;SDS011;2419;51.276;6.472;2024-03-23T05:42:52;26.07;;;7.37;;
4810;SDS011;2419;51.276;6.472;2024-03-23T05:45:18;8.23;;;5.20;;
4810;SDS011;2419;51.276;6.472;2024-03-23T05:47:45;14.13;;;5.33;;
4810;SDS011;2419;51.276;6.472;2024-03-23T05:50:13;22.03;;;5.63;;
4810;SDS011;2419;51.276;6.472;2024-03-23T05:52:40;21.23;;;6.10;;
4810;SDS011;2419;51.276;6.472;2024-03-23T05:55:09;12.37;;;5.87;;
4810;SDS011;2419;51.276;6.472;2024-03-23T05:57:36;19.17;;;5.60;;
4810;SDS011;2419;51.276;6.472;2024-03-23T06:00:02;15.13;;;5.10;;
4810;SDS011;2419;51.276;6.472;2024-03-23T06:02:37;15.43;;;5.10;;
4810;SDS011;2419;51.276;6.472;2024-03-23T06:05:03;13.57;;;5.00;;
4810;SDS011;2419;51.276;6.472;2024-03-23T06:07:32;13.17;;;5.03;;
4810;SDS011;2419;51.276;6.472;2024-03-23T06:09:58;12.77;;;4.70;;
4810;SDS011;2419;51.276;6.472;2024-03-23T06:12:25;14.07;;;4.80;;
4810;SDS011;2419;51.276;6.472;2024-03-23T06:14:51;18.63;;;5.30;;
4810;SDS011;2419;51.276;6.472;2024-03-23T06:17:18;14.37;;;5.67;;
4810;SDS011;2419;51.276;6.472;2024-03-23T06:19:45;14.47;;;4.20;;
4810;SDS011;2419;51.276;6.472;2024-03-23T06:22:12;15.03;;;5.73;;
4810;SDS011;2419;51.276;6.472;2024-03-23T06:24:40;12.60;;;5.70;;
4810;SDS011;2419;51.276;6.472;2024-03-23T06:27:07;22.17;;;5.60;;
4810;SDS011;2419;51.276;6.472;2024-03-23T06:29:33;18.70;;;5.90;;
4810;SDS011;2419;51.276;6.472;2024-03-23T06:32:01;16.00;;;5.00;;
4810;SDS011;2419;51.276;6.472;2024-03-23T06:34:29;9.37;;;4.50;;
4810;SDS011;2419;51.276;6.472;2024-03-23T06:36:56;9.20;;;4.60;;
4810;SDS011;2419;51.276;6.472;2024-03-23T06:39:22;11.47;;;5.07;;
4810;SDS011;2419;51.276;6.472;2024-03-23T06:41:52;13.13;;;4.23;;
4810;SDS011;2419;51.276;6.472;2024-03-23T06:44:20;15.27;;;4.23;;
4810;SDS011;2419;51.276;6.472;2024-03-23T06:46:47;11.07;;;4.17;;
4810;SDS011;2419;51.276;6.472;2024-03-23T06:49:14;14.73;;;4.97;;
4810;SDS011;2419;51.276;6.472;2024-03-23T06:51:41;16.87;;;4.57;;
4810;SDS011;2419;51.276;6.472;2024-03-23T06:54:07;9.20;;;3.70;;
4810;SDS011;2419;51.276;6.472;2024-03-23T06:56:34;13.10;;;3.77;;
4810;SDS011;2419;51.276;6.472;2024-03-23T06:59:02;11.90;;;4.30;;
4810;SDS011;2419;51.276;6.472;2024-03-23T07:01:29;6.70;;;3.40;;
4810;SDS011;2419;51.276;6.472;2024-03-23T07:03:55;9.60;;;4.40;;
4810;SDS011;2419;51.276;6.472;2024-03-23T07:06:23;8.90;;;3.40;;
4810;SDS011;2419;51.276;6.472;2024-03-23T07:08:49;27.13;;;4.70;;
4810;SDS011;2419;51.276;6.472;2024-03-23T07:11:18;11.50;;;3.67;;
4810;SDS011;2419;51.276;6.472;2024-03-23T07:13:45;9.47;;;3.87;;
4810;SDS011;2419;51.276;6.472;2024-03-23T07:16:14;13.33;;;4.37;;
4810;SDS011;2419;51.276;6.472;2024-03-23T07:18:41;14.33;;;3.70;;
4810;SDS011;2419;51.276;6.472;2024-03-23T07:21:08;12.53;;;4.20;;
4810;SDS011;2419;51.276;6.472;2024-03-23T07:23:34;13.77;;;4.60;;
4810;SDS011;2419;51.276;6.472;2024-03-23T07:26:02;13.33;;;4.27;;
4810;SDS011;2419;51.276;6.472;2024-03-23T07:28:29;15.20;;;4.60;;
4810;SDS011;2419;51.276;6.472;2024-03-23T07:31:02;10.63;;;4.73;;
4810;SDS011;2419;51.276;6.472;2024-03-23T07:33:31;19.80;;;4.27;;
4810;SDS011;2419;51.276;6.472;2024-03-23T07:35:59;8.93;;;4.00;;
4810;SDS011;2419;51.276;6.472;2024-03-23T07:38:26;14.33;;;3.83;;
4810;SDS011;2419;51.276;6.472;2024-03-23T07:41:02;18.30;;;3.93;;
4810;SDS011;2419;51.276;6.472;2024-03-23T07:43:29;13.43;;;4.53;;
4810;SDS011;2419;51.276;6.472;2024-03-23T07:45:56;8.83;;;3.60;;
4810;SDS011;2419;51.276;6.472;2024-03-23T07:48:22;9.47;;;4.20;;
4810;SDS011;2419;51.276;6.472;2024-03-23T07:51:02;12.07;;;4.43;;
4810;SDS011;2419;51.276;6.472;2024-03-23T07:53:30;10.10;;;3.73;;
4810;SDS011;2419;51.276;6.472;2024-03-23T07:55:58;9.30;;;4.10;;
4810;SDS011;2419;51.276;6.472;2024-03-23T07:58:25;8.33;;;3.40;;
4810;SDS011;2419;51.276;6.472;2024-03-23T08:00:52;12.27;;;3.90;;
4810;SDS011;2419;51.276;6.472;2024-03-23T08:03:19;11.73;;;3.43;;
4810;SDS011;2419;51.276;6.472;2024-03-23T08:05:46;14.30;;;3.63;;
4810;SDS011;2419;51.276;6.472;2024-03-23T08:08:13;13.57;;;4.40;;
4810;SDS011;2419;51.276;6.472;2024-03-23T08:10:47;8.43;;;2.70;;
4810;SDS011;2419;51.276;6.472;2024-03-23T08:13:14;12.30;;;4.33;;
4810;SDS011;2419;51.276;6.472;2024-03-23T08:15:41;11.97;;;4.00;;
4810;SDS011;2419;51.276;6.472;2024-03-23T08:18:08;7.70;;;2.93;;
4810;SDS011;2419;51.276;6.472;2024-03-23T08:20:37;9.90;;;2.80;;
4810;SDS011;2419;51.276;6.472;2024-03-23T08:23:04;7.47;;;2.70;;
4810;SDS011;2419;51.276;6.472;2024-03-23T08:25:33;6.77;;;2.50;;
4810;SDS011;2419;51.276;6.472;2024-03-23T08:28:00;6.47;;;2.27;;
4810;SDS011;2419;51.276;6.472;2024-03-23T08:30:28;12.23;;;2.40;;
4810;SDS011;2419;51.276;6.472;2024-03-23T08:32:54;9.00;;;2.97;;
4810;SDS011;2419;51.276;6.472;2024-03-23T08:35:21;12.70;;;2.67;;
4810;SDS011;2419;51.276;6.472;2024-03-23T08:37:47;8.57;;;2.40;;
4810;SDS011;2419;51.276;6.472;2024-03-23T08:40:15;6.77;;;2.33;;
4810;SDS011;2419;51.276;6.472;2024-03-23T08:42:42;8.30;;;2.87;;
4810;SDS011;2419;51.276;6.472;2024-03-23T08:45:10;6.27;;;2.37;;
4810;SDS011;2419;51.276;6.472;2024-03-23T08:47:36;10.27;;;2.03;;
4810;SDS011;2419;51.276;6.472;2024-03-23T08:50:03;16.43;;;3.60;;
4810;SDS011;2419;51.276;6.472;2024-03-23T08:52:30;11.10;;;2.70;;
4810;SDS011;2419;51.276;6.472;2024-03-23T08:54:57;6.40;;;2.63;;
4810;SDS011;2419;51.276;6.472;2024-03-23T08:57:23;9.37;;;2.00;;
4810;SDS011;2419;51.276;6.472;2024-03-23T08:59:52;7.40;;;2.40;;
4810;SDS011;2419;51.276;6.472;2024-03-23T09:02:18;13.30;;;2.77;;
4810;SDS011;2419;51.276;6.472;2024-03-23T09:04:45;4.33;;;2.10;;
4810;SDS011;2419;51.276;6.472;2024-03-23T09:07:11;7.13;;;2.70;;
4810;SDS011;2419;51.276;6.472;2024-03-23T09:09:38;16.40;;;2.73;;
4810;SDS011;2419;51.276;6.472;2024-03-23T09:12:05;7.90;;;2.63;;
4810;SDS011;2419;51.276;6.472;2024-03-23T09:14:32;11.57;;;3.10;;
4810;SDS011;2419;51.276;6.472;2024-03-23T09:17:00;9.20;;;2.40;;
4810;SDS011;2419;51.276;6.472;2024-03-23T09:19:27;12.00;;;3.43;;
4810;SDS011;2419;51.276;6.472;2024-03-23T09:21:54;6.27;;;2.80;;
4810;SDS011;2419;51.276;6.472;2024-03-23T09:24:21;9.97;;;3.20;;
4810;SDS011;2419;51.276;6.472;2024-03-23T09:26:47;6.23;;;2.37;;
4810;SDS011;2419;51.276;6.472;2024-03-23T09:29:14;4.03;;;2.30;;
4810;SDS011;2419;51.276;6.472;2024-03-23T09:31:41;9.30;;;3.03;;
4810;SDS011;2419;51.276;6.472;2024-03-23T09:34:09;8.43;;;3.00;;
4810;SDS011;2419;51.276;6.472;2024-03-23T09:36:35;6.30;;;2.90;;
4810;SDS011;2419;51.276;6.472;2024-03-23T09:39:02;6.13;;;2.40;;
4810;SDS011;2419;51.276;6.472;2024-03-23T09:41:29;10.73;;;1.93;;
4810;SDS011;2419;51.276;6.472;2024-03-23T09:43:56;10.93;;;2.57;;
4810;SDS011;2419;51.276;6.472;2024-03-23T09:46:22;7.73;;;2.13;;
4810;SDS011;2419;51.276;6.472;2024-03-23T09:48:49;6.47;;;1.83;;
4810;SDS011;2419;51.276;6.472;2024-03-23T09:51:17;4.80;;;2.23;;
4810;SDS011;2419;51.276;6.472;2024-03-23T09:53:44;8.27;;;2.43;;
4810;SDS011;2419;51.276;6.472;2024-03-23T09:56:10;5.27;;;2.63;;
4810;SDS011;2419;51.276;6.472;2024-03-23T09:58:37;8.20;;;2.10;;
4810;SDS011;2419;51.276;6.472;2024-03-23T10:01:03;5.53;;;2.00;;
4810;SDS011;2419;51.276;6.472;2024-03-23T10:03:31;5.33;;;1.53;;
4810;SDS011;2419;51.276;6.472;2024-03-23T10:06:00;2.73;;;1.57;;
4810;SDS011;2419;51.276;6.472;2024-03-23T10:08:29;2.40;;;1.37;;
4810;SDS011;2419;51.276;6.472;2024-03-23T10:10:56;4.83;;;1.80;;
4810;SDS011;2419;51.276;6.472;2024-03-23T10:13:24;3.03;;;1.80;;
4810;SDS011;2419;51.276;6.472;2024-03-23T10:15:57;7.00;;;1.63;;
4810;SDS011;2419;51.276;6.472;2024-03-23T10:18:25;2.77;;;1.40;;
4810;SDS011;2419;51.276;6.472;2024-03-23T10:21:06;2.20;;;1.30;;
4810;SDS011;2419;51.276;6.472;2024-03-23T10:23:35;1.70;;;1.40;;
4810;SDS011;2419;51.276;6.472;2024-03-23T10:26:15;1.77;;;0.90;;
4810;SDS011;2419;51.276;6.472;2024-03-23T10:28:50;1.83;;;1.10;;
4810;SDS011;2419;51.276;6.472;2024-03-23T10:31:19;2.03;;;1.10;;
4810;SDS011;2419;51.276;6.472;2024-03-23T10:33:47;1.20;;;0.97;;
4810;SDS011;2419;51.276;6.472;2024-03-23T10:36:13;2.97;;;1.03;;
4810;SDS011;2419;51.276;6.472;2024-03-23T10:38:43;1.20;;;0.90;;
4810;SDS011;2419;51.276;6.472;2024-03-23T10:41:10;3.07;;;1.10;;
4810;SDS011;2419;51.276;6.472;2024-03-23T10:43:37;1.00;;;0.90;;
4810;SDS011;2419;51.276;6.472;2024-03-23T10:46:04;3.10;;;0.90;;
4810;SDS011;2419;51.276;6.472;2024-03-23T10:48:32;4.53;;;1.27;;
4810;SDS011;2419;51.276;6.472;2024-03-23T10:50:58;4.00;;;1.10;;
4810;SDS011;2419;51.276;6.472;2024-03-23T10:53:26;0.97;;;0.97;;
4810;SDS011;2419;51.276;6.472;2024-03-23T10:55:55;2.20;;;1.00;;
4810;SDS011;2419;51.276;6.472;2024-03-23T10:58:23;2.77;;;1.30;;
4810;SDS011;2419;51.276;6.472;2024-03-23T11:00:53;1.70;;;1.33;;
4810;SDS011;2419;51.276;6.472;2024-03-23T11:03:29;3.60;;;1.53;;
4810;SDS011;2419;51.276;6.472;2024-03-23T11:05:56;1.80;;;1.10;;
4810;SDS011;2419;51.276;6.472;2024-03-23T11:08:31;3.10;;;1.10;;
4810;SDS011;2419;51.276;6.472;2024-03-23T11:11:15;1.70;;;1.23;;
4810;SDS011;2419;51.276;6.472;2024-03-23T11:13:44;3.53;;;1.63;;
4810;SDS011;2419;51.276;6.472;2024-03-23T11:16:13;7.17;;;1.33;;
4810;SDS011;2419;51.276;6.472;2024-03-23T11:18:41;3.37;;;1.70;;
4810;SDS011;2419;51.276;6.472;2024-03-23T11:21:09;3.37;;;1.23;;
4810;SDS011;2419;51.276;6.472;2024-03-23T11:23:36;5.57;;;1.70;;
4810;SDS011;2419;51.276;6.472;2024-03-23T11:26:06;3.07;;;1.60;;
4810;SDS011;2419;51.276;6.472;2024-03-23T11:28:35;5.00;;;1.60;;
4810;SDS011;2419;51.276;6.472;2024-03-23T11:31:05;1.53;;;1.43;;
4810;SDS011;2419;51.276;6.472;2024-03-23T11:33:36;3.30;;;1.23;;
4810;SDS011;2419;51.276;6.472;2024-03-23T11:36:03;3.03;;;1.33;;
4810;SDS011;2419;51.276;6.472;2024-03-23T11:38:31;1.37;;;1.17;;
4810;SDS011;2419;51.276;6.472;2024-03-23T11:41:02;1.93;;;1.00;;
4810;SDS011;2419;51.276;6.472;2024-03-23T11:43:29;1.37;;;0.90;;
4810;SDS011;2419;51.276;6.472;2024-03-23T11:45:57;3.00;;;1.17;;
4810;SDS011;2419;51.276;6.472;2024-03-23T11:48:28;2.20;;;1.23;;
4810;SDS011;2419;51.276;6.472;2024-03-23T11:50:55;1.20;;;0.87;;
4810;SDS011;2419;51.276;6.472;2024-03-23T11:53:24;3.57;;;1.40;;
4810;SDS011;2419;51.276;6.472;2024-03-23T11:55:53;2.47;;;1.30;;
4810;SDS011;2419;51.276;6.472;2024-03-23T11:58:22;3.30;;;1.93;;
4810;SDS011;2419;51.276;6.472;2024-03-23T12:00:50;3.43;;;1.30;;
4810;SDS011;2419;51.276;6.472;2024-03-23T12:03:19;2.53;;;1.60;;
4810;SDS011;2419;51.276;6.472;2024-03-23T12:05:47;4.80;;;2.10;;
4810;SDS011;2419;51.276;6.472;2024-03-23T12:08:19;7.07;;;2.10;;
4810;SDS011;2419;51.276;6.472;2024-03-23T12:10:47;2.57;;;1.90;;
4810;SDS011;2419;51.276;6.472;2024-03-23T12:13:16;2.40;;;1.50;;
4810;SDS011;2419;51.276;6.472;2024-03-23T12:15:44;7.60;;;1.83;;
4810;SDS011;2419;51.276;6.472;2024-03-23T12:18:12;2.30;;;1.43;;
4810;SDS011;2419;51.276;6.472;2024-03-23T12:20:40;2.57;;;1.50;;
4810;SDS011;2419;51.276;6.472;2024-03-23T12:23:07;2.17;;;1.37;;
4810;SDS011;2419;51.276;6.472;2024-03-23T12:25:36;4.50;;;1.50;;
4810;SDS011;2419;51.276;6.472;2024-03-23T12:28:03;2.93;;;1.63;;
4810;SDS011;2419;51.276;6.472;2024-03-23T12:30:32;3.20;;;1.67;;
4810;SDS011;2419;51.276;6.472;2024-03-23T12:33:02;3.53;;;1.40;;
4810;SDS011;2419;51.276;6.472;2024-03-23T12:35:28;2.33;;;1.17;;
4810;SDS011;2419;51.276;6.472;2024-03-23T12:37:57;2.23;;;1.17;;
4810;SDS011;2419;51.276;6.472;2024-03-23T12:40:23;2.40;;;1.00;;
4810;SDS011;2419;51.276;6.472;2024-03-23T12:42:50;2.07;;;1.10;;
4810;SDS011;2419;51.276;6.472;2024-03-23T12:45:16;3.73;;;1.43;;
4810;SDS011;2419;51.276;6.472;2024-03-23T12:47:43;5.10;;;1.80;;
4810;SDS011;2419;51.276;6.472;2024-03-23T12:50:10;5.43;;;1.87;;
4810;SDS011;2419;51.276;6.472;2024-03-23T12:52:37;2.33;;;1.00;;
4810;SDS011;2419;51.276;6.472;2024-03-23T12:55:05;1.20;;;0.97;;
4810;SDS011;2419;51.276;6.472;2024-03-23T12:57:32;1.80;;;1.00;;
4810;SDS011;2419;51.276;6.472;2024-03-23T12:59:58;1.63;;;0.90;;
4810;SDS011;2419;51.276;6.472;2024-03-23T13:02:26;1.50;;;1.13;;
4810;SDS011;2419;51.276;6.472;2024-03-23T13:04:52;2.50;;;1.00;;
4810;SDS011;2419;51.276;6.472;2024-03-23T13:07:20;4.63;;;0.80;;
4810;SDS011;2419;51.276;6.472;2024-03-23T13:09:49;1.77;;;1.10;;
4810;SDS011;2419;51.276;6.472;2024-03-23T13:12:18;0.80;;;0.80;;
4810;SDS011;2419;51.276;6.472;2024-03-23T13:14:44;1.07;;;0.97;;
4810;SDS011;2419;51.276;6.472;2024-03-23T13:17:11;3.07;;;0.87;;
4810;SDS011;2419;51.276;6.472;2024-03-23T13:19:38;2.40;;;1.30;;
4810;SDS011;2419;51.276;6.472;2024-03-23T13:22:06;1.00;;;0.80;;
4810;SDS011;2419;51.276;6.472;2024-03-23T13:24:32;0.90;;;0.70;;
4810;SDS011;2419;51.276;6.472;2024-03-23T13:26:59;2.00;;;1.07;;
4810;SDS011;2419;51.276;6.472;2024-03-23T13:29:27;3.53;;;1.10;;
4810;SDS011;2419;51.276;6.472;2024-03-23T13:31:54;1.23;;;1.00;;
4810;SDS011;2419;51.276;6.472;2024-03-23T13:34:20;3.00;;;1.10;;
4810;SDS011;2419;51.276;6.472;2024-03-23T13:36:47;2.50;;;1.40;;
4810;SDS011;2419;51.276;6.472;2024-03-23T13:39:14;2.23;;;1.10;;
4810;SDS011;2419;51.276;6.472;2024-03-23T13:41:42;1.43;;;1.10;;
4810;SDS011;2419;51.276;6.472;2024-03-23T13:44:09;4.23;;;1.30;;
4810;SDS011;2419;51.276;6.472;2024-03-23T13:46:38;3.47;;;1.20;;
4810;SDS011;2419;51.276;6.472;2024-03-23T13:49:05;3.83;;;1.37;;
4810;SDS011;2419;51.276;6.472;2024-03-23T13:51:32;4.10;;;1.37;;
4810;SDS011;2419;51.276;6.472;2024-03-23T13:53:59;3.23;;;1.10;;
4810;SDS011;2419;51.276;6.472;2024-03-23T13:56:27;2.60;;;1.10;;
4810;SDS011;2419;51.276;6.472;2024-03-23T13:58:54;2.73;;;1.40;;
4810;SDS011;2419;51.276;6.472;2024-03-23T14:01:21;3.17;;;1.57;;
4810;SDS011;2419;51.276;6.472;2024-03-23T14:03:49;4.03;;;1.83;;
4810;SDS011;2419;51.276;6.472;2024-03-23T14:06:16;2.83;;;1.17;;
4810;SDS011;2419;51.276;6.472;2024-03-23T14:08:42;3.17;;;1.67;;
4810;SDS011;2419;51.276;6.472;2024-03-23T14:11:10;2.43;;;1.03;;
4810;SDS011;2419;51.276;6.472;2024-03-23T14:13:36;3.00;;;1.30;;
4810;SDS011;2419;51.276;6.472;2024-03-23T14:16:04;4.83;;;1.23;;
4810;SDS011;2419;51.276;6.472;2024-03-23T14:18:30;1.63;;;0.90;;
4810;SDS011;2419;51.276;6.472;2024-03-23T14:20:59;2.23;;;1.20;;
4810;SDS011;2419;51.276;6.472;2024-03-23T14:23:26;1.63;;;1.00;;
4810;SDS011;2419;51.276;6.472;2024-03-23T14:25:54;2.00;;;1.20;;
4810;SDS011;2419;51.276;6.472;2024-03-23T14:28:21;2.10;;;1.33;;
4810;SDS011;2419;51.276;6.472;2024-03-23T14:30:49;1.87;;;1.23;;
4810;SDS011;2419;51.276;6.472;2024-03-23T14:33:15;2.90;;;1.37;;
4810;SDS011;2419;51.276;6.472;2024-03-23T14:35:43;1.00;;;0.90;;
4810;SDS011;2419;51.276;6.472;2024-03-23T14:38:18;2.13;;;1.10;;
4810;SDS011;2419;51.276;6.472;2024-03-23T14:40:45;3.47;;;1.20;;
4810;SDS011;2419;51.276;6.472;2024-03-23T14:43:11;4.93;;;1.60;;
4810;SDS011;2419;51.276;6.472;2024-03-23T14:45:45;3.00;;;1.63;;
4810;SDS011;2419;51.276;6.472;2024-03-23T14:48:31;2.50;;;1.23;;
4810;SDS011;2419;51.276;6.472;2024-03-23T14:50:58;2.40;;;1.10;;
4810;SDS011;2419;51.276;6.472;2024-03-23T14:53:26;5.30;;;1.30;;
4810;SDS011;2419;51.276;6.472;2024-03-23T14:55:55;3.23;;;1.20;;
4810;SDS011;2419;51.276;6.472;2024-03-23T14:58:21;2.63;;;1.20;;
4810;SDS011;2419;51.276;6.472;2024-03-23T15:00:49;2.53;;;1.20;;
4810;SDS011;2419;51.276;6.472;2024-03-23T15:03:17;3.90;;;1.27;;
4810;SDS011;2419;51.276;6.472;2024-03-23T15:05:51;2.20;;;0.90;;
4810;SDS011;2419;51.276;6.472;2024-03-23T15:08:18;1.50;;;0.80;;
4810;SDS011;2419;51.276;6.472;2024-03-23T15:10:46;2.00;;;1.00;;
4810;SDS011;2419;51.276;6.472;2024-03-23T15:13:13;5.30;;;1.60;;
4810;SDS011;2419;51.276;6.472;2024-03-23T15:15:40;1.57;;;0.93;;
4810;SDS011;2419;51.276;6.472;2024-03-23T15:18:09;1.63;;;1.10;;
4810;SDS011;2419;51.276;6.472;2024-03-23T15:20:37;1.53;;;0.90;;
4810;SDS011;2419;51.276;6.472;2024-03-23T15:23:04;3.43;;;1.40;;
4810;SDS011;2419;51.276;6.472;2024-03-23T15:25:31;2.77;;;1.40;;
4810;SDS011;2419;51.276;6.472;2024-03-23T15:27:59;6.10;;;1.30;;
4810;SDS011;2419;51.276;6.472;2024-03-23T15:30:26;5.13;;;1.27;;
4810;SDS011;2419;51.276;6.472;2024-03-23T15:32:52;3.17;;;1.23;;
4810;SDS011;2419;51.276;6.472;2024-03-23T15:35:19;2.13;;;1.10;;
4810;SDS011;2419;51.276;6.472;2024-03-23T15:37:48;3.53;;;1.17;;
4810;SDS011;2419;51.276;6.472;2024-03-23T15:40:15;6.40;;;1.10;;
4810;SDS011;2419;51.276;6.472;2024-03-23T15:42:41;2.07;;;0.97;;
4810;SDS011;2419;51.276;6.472;2024-03-23T15:45:10;1.80;;;1.03;;
4810;SDS011;2419;51.276;6.472;2024-03-23T15:47:37;4.20;;;1.27;;
4810;SDS011;2419;51.276;6.472;2024-03-23T15:50:04;1.33;;;0.80;;
4810;SDS011;2419;51.276;6.472;2024-03-23T15:52:34;1.27;;;0.97;;
4810;SDS011;2419;51.276;6.472;2024-03-23T15:55:02;1.73;;;0.80;;
4810;SDS011;2419;51.276;6.472;2024-03-23T15:57:32;0.70;;;0.70;;
4810;SDS011;2419;51.276;6.472;2024-03-23T16:00:00;0.90;;;0.70;;
4810;SDS011;2419;51.276;6.472;2024-03-23T16:02:28;0.83;;;0.83;;
4810;SDS011;2419;51.276;6.472;2024-03-23T16:04:55;3.37;;;1.20;;
4810;SDS011;2419;51.276;6.472;2024-03-23T16:07:23;1.00;;;0.90;;
4810;SDS011;2419;51.276;6.472;2024-03-23T16:09:50;1.00;;;0.90;;